sensor_id;sensor_type;location;lat;lon;timestamp;temperature;humidity
32522;DHT22;18963;51.504;5.316;2023-06-19T00:01:42;19.90;99.90
32522;DHT22;18963;51.504;5.316;2023-06-19T00:04:09;19.80;99.90
32522;DHT22;18963;51.504;5.316;2023-06-19T00:06:34;19.80;99.90
32522;DHT22;18963;51.504;5.316;2023-06-19T00:09:00;19.70;99.90
32522;DHT22;18963;51.504;5.316;2023-06-19T00:11:25;19.60;99.90
32522;DHT22;18963;51.504;5.316;2023-06-19T00:13:51;19.50;99.90
32522;DHT22;18963;51.504;5.316;2023-06-19T00:16:16;19.40;99.90
32522;DHT22;18963;51.504;5.316;2023-06-19T00:18:41;19.30;99.90
32522;DHT22;18963;51.504;5.316;2023-06-19T00:21:07;19.20;99.90
32522;DHT22;18963;51.504;5.316;2023-06-19T00:23:33;19.10;99.90
32522;DHT22;18963;51.504;5.316;2023-06-19T00:25:59;19.10;99.90
32522;DHT22;18963;51.504;5.316;2023-06-19T00:28:27;19.00;99.90
32522;DHT22;18963;51.504;5.316;2023-06-19T00:30:52;18.90;99.90
32522;DHT22;18963;51.504;5.316;2023-06-19T00:33:18;18.90;99.90
32522;DHT22;18963;51.504;5.316;2023-06-19T00:35:43;18.80;99.90
32522;DHT22;18963;51.504;5.316;2023-06-19T00:38:09;18.80;99.90
32522;DHT22;18963;51.504;5.316;2023-06-19T00:40:34;18.70;99.90
32522;DHT22;18963;51.504;5.316;2023-06-19T00:43:00;18.70;99.90
32522;DHT22;18963;51.504;5.316;2023-06-19T00:45:25;18.70;99.90
32522;DHT22;18963;51.504;5.316;2023-06-19T00:47:51;18.70;99.90
32522;DHT22;18963;51.504;5.316;2023-06-19T00:50:17;18.70;99.90
32522;DHT22;18963;51.504;5.316;2023-06-19T00:52:43;18.60;99.90
32522;DHT22;18963;51.504;5.316;2023-06-19T00:55:08;18.60;99.90
32522;DHT22;18963;51.504;5.316;2023-06-19T00:57:34;18.60;99.90
32522;DHT22;18963;51.504;5.316;2023-06-19T01:00:01;18.60;99.90
32522;DHT22;18963;51.504;5.316;2023-06-19T01:02:29;18.60;99.90
32522;DHT22;18963;51.504;5.316;2023-06-19T01:04:55;18.60;99.90
32522;DHT22;18963;51.504;5.316;2023-06-19T01:07:29;18.50;99.90
32522;DHT22;18963;51.504;5.316;2023-06-19T01:09:57;18.50;99.90
32522;DHT22;18963;51.504;5.316;2023-06-19T01:12:28;18.40;99.90
32522;DHT22;18963;51.504;5.316;2023-06-19T01:14:57;18.40;99.90
32522;DHT22;18963;51.504;5.316;2023-06-19T01:17:24;18.40;99.90
32522;DHT22;18963;51.504;5.316;2023-06-19T01:19:50;18.40;99.90
32522;DHT22;18963;51.504;5.316;2023-06-19T01:22:25;18.40;99.90
32522;DHT22;18963;51.504;5.316;2023-06-19T01:24:51;18.40;99.90
32522;DHT22;18963;51.504;5.316;2023-06-19T01:27:16;18.40;99.90
32522;DHT22;18963;51.504;5.316;2023-06-19T01:29:42;18.40;99.90
32522;DHT22;18963;51.504;5.316;2023-06-19T01:32:10;18.40;99.90
32522;DHT22;18963;51.504;5.316;2023-06-19T01:34:35;18.40;99.90
32522;DHT22;18963;51.504;5.316;2023-06-19T01:37:01;18.40;99.90
32522;DHT22;18963;51.504;5.316;2023-06-19T01:39:28;18.30;99.90
32522;DHT22;18963;51.504;5.316;2023-06-19T01:41:53;18.30;99.90
32522;DHT22;18963;51.504;5.316;2023-06-19T01:44:20;18.30;99.90
32522;DHT22;18963;51.504;5.316;2023-06-19T01:46:49;18.30;99.90
32522;DHT22;18963;51.504;5.316;2023-06-19T01:49:15;18.30;99.90
32522;DHT22;18963;51.504;5.316;2023-06-19T01:51:41;18.30;99.90
32522;DHT22;18963;51.504;5.316;2023-06-19T01:54:06;18.30;99.90
32522;DHT22;18963;51.504;5.316;2023-06-19T01:56:32;18.20;99.90
32522;DHT22;18963;51.504;5.316;2023-06-19T01:58:58;18.10;99.90
32522;DHT22;18963;51.504;5.316;2023-06-19T02:01:23;18.10;99.90
32522;DHT22;18963;51.504;5.316;2023-06-19T02:03:49;18.10;99.90
32522;DHT22;18963;51.504;5.316;2023-06-19T02:06:14;18.10;99.90
32522;DHT22;18963;51.504;5.316;2023-06-19T02:08:40;18.20;99.90
32522;DHT22;18963;51.504;5.316;2023-06-19T02:11:05;18.20;99.90
32522;DHT22;18963;51.504;5.316;2023-06-19T02:13:31;18.30;99.90
32522;DHT22;18963;51.504;5.316;2023-06-19T02:15:56;18.30;99.90
32522;DHT22;18963;51.504;5.316;2023-06-19T02:18:22;18.40;99.90
32522;DHT22;18963;51.504;5.316;2023-06-19T02:20:47;18.40;99.90
32522;DHT22;18963;51.504;5.316;2023-06-19T02:23:13;18.50;99.90
32522;DHT22;18963;51.504;5.316;2023-06-19T02:25:39;18.40;99.90
32522;DHT22;18963;51.504;5.316;2023-06-19T02:28:04;18.40;99.90
32522;DHT22;18963;51.504;5.316;2023-06-19T02:30:30;18.40;99.90
32522;DHT22;18963;51.504;5.316;2023-06-19T02:32:55;18.30;99.90
32522;DHT22;18963;51.504;5.316;2023-06-19T02:35:21;18.30;99.90
32522;DHT22;18963;51.504;5.316;2023-06-19T02:37:46;18.20;99.90
32522;DHT22;18963;51.504;5.316;2023-06-19T02:40:12;18.20;99.90
32522;DHT22;18963;51.504;5.316;2023-06-19T02:42:38;18.10;99.90
32522;DHT22;18963;51.504;5.316;2023-06-19T02:45:03;18.10;99.90
32522;DHT22;18963;51.504;5.316;2023-06-19T02:47:32;18.00;99.90
32522;DHT22;18963;51.504;5.316;2023-06-19T02:49:58;18.00;99.90
32522;DHT22;18963;51.504;5.316;2023-06-19T02:52:24;17.90;99.90
32522;DHT22;18963;51.504;5.316;2023-06-19T02:54:49;17.80;99.90
32522;DHT22;18963;51.504;5.316;2023-06-19T02:57:15;17.80;99.90
32522;DHT22;18963;51.504;5.316;2023-06-19T02:59:40;17.80;99.90
32522;DHT22;18963;51.504;5.316;2023-06-19T03:02:06;17.70;99.90
32522;DHT22;18963;51.504;5.316;2023-06-19T03:04:31;17.70;99.90
32522;DHT22;18963;51.504;5.316;2023-06-19T03:06:56;17.70;99.90
32522;DHT22;18963;51.504;5.316;2023-06-19T03:09:22;17.60;99.90
32522;DHT22;18963;51.504;5.316;2023-06-19T03:11:47;17.60;99.90
32522;DHT22;18963;51.504;5.316;2023-06-19T03:14:13;17.60;99.90
32522;DHT22;18963;51.504;5.316;2023-06-19T03:16:38;17.50;99.90
32522;DHT22;18963;51.504;5.316;2023-06-19T03:19:04;17.50;99.90
32522;DHT22;18963;51.504;5.316;2023-06-19T03:21:29;17.50;99.90
32522;DHT22;18963;51.504;5.316;2023-06-19T03:23:55;17.40;99.90
32522;DHT22;18963;51.504;5.316;2023-06-19T03:26:20;17.40;99.90
32522;DHT22;18963;51.504;5.316;2023-06-19T03:28:46;17.30;99.90
32522;DHT22;18963;51.504;5.316;2023-06-19T03:31:13;17.30;99.90
32522;DHT22;18963;51.504;5.316;2023-06-19T03:33:38;17.30;99.90
32522;DHT22;18963;51.504;5.316;2023-06-19T03:36:04;17.30;99.90
32522;DHT22;18963;51.504;5.316;2023-06-19T03:38:29;17.30;99.90
32522;DHT22;18963;51.504;5.316;2023-06-19T03:40:55;17.30;99.90
32522;DHT22;18963;51.504;5.316;2023-06-19T03:43:20;17.30;99.90
32522;DHT22;18963;51.504;5.316;2023-06-19T03:45:46;17.30;99.90
32522;DHT22;18963;51.504;5.316;2023-06-19T03:48:11;17.40;99.90
32522;DHT22;18963;51.504;5.316;2023-06-19T03:50:37;17.40;99.90
32522;DHT22;18963;51.504;5.316;2023-06-19T03:53:02;17.50;99.90
32522;DHT22;18963;51.504;5.316;2023-06-19T03:55:28;17.60;99.90
32522;DHT22;18963;51.504;5.316;2023-06-19T03:57:53;17.70;99.90
32522;DHT22;18963;51.504;5.316;2023-06-19T04:00:19;17.70;99.90
32522;DHT22;18963;51.504;5.316;2023-06-19T04:02:44;17.80;99.90
32522;DHT22;18963;51.504;5.316;2023-06-19T04:05:11;17.80;99.90
32522;DHT22;18963;51.504;5.316;2023-06-19T04:07:37;17.90;99.90
32522;DHT22;18963;51.504;5.316;2023-06-19T04:10:02;18.00;99.90
32522;DHT22;18963;51.504;5.316;2023-06-19T04:12:28;18.00;99.90
32522;DHT22;18963;51.504;5.316;2023-06-19T04:14:54;18.10;99.90
32522;DHT22;18963;51.504;5.316;2023-06-19T04:17:19;18.10;99.90
32522;DHT22;18963;51.504;5.316;2023-06-19T04:19:45;18.20;99.90
32522;DHT22;18963;51.504;5.316;2023-06-19T04:22:10;18.30;99.90
32522;DHT22;18963;51.504;5.316;2023-06-19T04:24:36;18.30;99.90
32522;DHT22;18963;51.504;5.316;2023-06-19T04:27:01;18.30;99.90
32522;DHT22;18963;51.504;5.316;2023-06-19T04:29:27;18.40;99.90
32522;DHT22;18963;51.504;5.316;2023-06-19T04:31:59;18.40;99.90
32522;DHT22;18963;51.504;5.316;2023-06-19T04:34:25;18.40;99.90
32522;DHT22;18963;51.504;5.316;2023-06-19T04:36:51;18.50;99.90
32522;DHT22;18963;51.504;5.316;2023-06-19T04:39:16;18.50;99.90
32522;DHT22;18963;51.504;5.316;2023-06-19T04:41:44;18.50;99.90
32522;DHT22;18963;51.504;5.316;2023-06-19T04:44:10;18.60;99.90
32522;DHT22;18963;51.504;5.316;2023-06-19T04:46:38;18.60;99.90
32522;DHT22;18963;51.504;5.316;2023-06-19T04:49:04;18.60;99.90
32522;DHT22;18963;51.504;5.316;2023-06-19T04:51:30;18.70;99.90
32522;DHT22;18963;51.504;5.316;2023-06-19T04:54:00;18.80;99.90
32522;DHT22;18963;51.504;5.316;2023-06-19T04:56:26;18.80;99.90
32522;DHT22;18963;51.504;5.316;2023-06-19T04:58:52;18.80;99.90
32522;DHT22;18963;51.504;5.316;2023-06-19T05:01:19;18.90;99.90
32522;DHT22;18963;51.504;5.316;2023-06-19T05:03:50;18.90;99.90
32522;DHT22;18963;51.504;5.316;2023-06-19T05:06:16;19.00;99.90
32522;DHT22;18963;51.504;5.316;2023-06-19T05:08:42;19.00;99.90
32522;DHT22;18963;51.504;5.316;2023-06-19T05:11:07;19.10;99.90
32522;DHT22;18963;51.504;5.316;2023-06-19T05:13:33;19.20;99.90
32522;DHT22;18963;51.504;5.316;2023-06-19T05:15:58;19.20;99.90
32522;DHT22;18963;51.504;5.316;2023-06-19T05:18:24;19.20;99.90
32522;DHT22;18963;51.504;5.316;2023-06-19T05:20:49;19.30;99.90
32522;DHT22;18963;51.504;5.316;2023-06-19T05:23:15;19.40;99.90
32522;DHT22;18963;51.504;5.316;2023-06-19T05:25:40;19.50;99.90
32522;DHT22;18963;51.504;5.316;2023-06-19T05:28:07;19.50;99.90
32522;DHT22;18963;51.504;5.316;2023-06-19T05:30:32;19.60;99.90
32522;DHT22;18963;51.504;5.316;2023-06-19T05:32:58;19.70;99.90
32522;DHT22;18963;51.504;5.316;2023-06-19T05:35:23;19.70;99.90
32522;DHT22;18963;51.504;5.316;2023-06-19T05:37:49;19.70;99.90
32522;DHT22;18963;51.504;5.316;2023-06-19T05:40:14;19.80;99.90
32522;DHT22;18963;51.504;5.316;2023-06-19T05:42:40;19.80;99.90
32522;DHT22;18963;51.504;5.316;2023-06-19T05:45:06;19.80;99.90
32522;DHT22;18963;51.504;5.316;2023-06-19T05:47:32;19.90;99.90
32522;DHT22;18963;51.504;5.316;2023-06-19T05:49:57;20.00;99.90
32522;DHT22;18963;51.504;5.316;2023-06-19T05:52:23;20.10;99.90
32522;DHT22;18963;51.504;5.316;2023-06-19T05:54:48;20.30;99.90
32522;DHT22;18963;51.504;5.316;2023-06-19T05:57:14;20.50;99.90
32522;DHT22;18963;51.504;5.316;2023-06-19T05:59:48;20.70;99.90
32522;DHT22;18963;51.504;5.316;2023-06-19T06:02:14;20.90;99.90
32522;DHT22;18963;51.504;5.316;2023-06-19T06:04:41;21.00;99.90
32522;DHT22;18963;51.504;5.316;2023-06-19T06:07:07;21.10;99.90
32522;DHT22;18963;51.504;5.316;2023-06-19T06:09:33;21.10;99.90
32522;DHT22;18963;51.504;5.316;2023-06-19T06:11:59;21.10;99.90
32522;DHT22;18963;51.504;5.316;2023-06-19T06:14:25;21.10;99.90
32522;DHT22;18963;51.504;5.316;2023-06-19T06:16:51;21.10;99.90
32522;DHT22;18963;51.504;5.316;2023-06-19T06:19:16;21.20;99.90
32522;DHT22;18963;51.504;5.316;2023-06-19T06:21:42;21.30;99.90
32522;DHT22;18963;51.504;5.316;2023-06-19T06:24:07;21.50;99.90
32522;DHT22;18963;51.504;5.316;2023-06-19T06:26:33;21.70;99.90
32522;DHT22;18963;51.504;5.316;2023-06-19T06:28:58;21.90;99.90
32522;DHT22;18963;51.504;5.316;2023-06-19T06:31:24;22.10;99.90
32522;DHT22;18963;51.504;5.316;2023-06-19T06:33:49;22.30;99.90
32522;DHT22;18963;51.504;5.316;2023-06-19T06:36:15;22.60;99.90
32522;DHT22;18963;51.504;5.316;2023-06-19T06:38:41;22.80;99.90
32522;DHT22;18963;51.504;5.316;2023-06-19T06:41:06;23.10;99.90
32522;DHT22;18963;51.504;5.316;2023-06-19T06:43:32;23.20;99.90
32522;DHT22;18963;51.504;5.316;2023-06-19T06:45:58;23.20;99.90
32522;DHT22;18963;51.504;5.316;2023-06-19T06:48:23;23.40;99.90
32522;DHT22;18963;51.504;5.316;2023-06-19T06:50:49;23.40;99.90
32522;DHT22;18963;51.504;5.316;2023-06-19T06:53:14;23.40;99.90
32522;DHT22;18963;51.504;5.316;2023-06-19T06:55:39;23.50;99.90
32522;DHT22;18963;51.504;5.316;2023-06-19T06:58:12;23.60;99.90
32522;DHT22;18963;51.504;5.316;2023-06-19T07:00:39;23.80;99.90
32522;DHT22;18963;51.504;5.316;2023-06-19T07:03:05;23.90;99.90
32522;DHT22;18963;51.504;5.316;2023-06-19T07:05:30;24.00;99.80
32522;DHT22;18963;51.504;5.316;2023-06-19T07:07:56;24.40;99.40
32522;DHT22;18963;51.504;5.316;2023-06-19T07:10:21;24.50;98.30
32522;DHT22;18963;51.504;5.316;2023-06-19T07:12:47;24.60;98.20
32522;DHT22;18963;51.504;5.316;2023-06-19T07:15:12;24.50;97.80
32522;DHT22;18963;51.504;5.316;2023-06-19T07:17:38;24.60;97.80
32522;DHT22;18963;51.504;5.316;2023-06-19T07:20:04;24.60;97.00
32522;DHT22;18963;51.504;5.316;2023-06-19T07:22:29;24.60;98.10
32522;DHT22;18963;51.504;5.316;2023-06-19T07:24:55;24.60;97.40
32522;DHT22;18963;51.504;5.316;2023-06-19T07:27:20;24.80;97.10
32522;DHT22;18963;51.504;5.316;2023-06-19T07:29:46;24.90;96.30
32522;DHT22;18963;51.504;5.316;2023-06-19T07:32:11;25.10;95.70
32522;DHT22;18963;51.504;5.316;2023-06-19T07:34:37;25.20;95.20
32522;DHT22;18963;51.504;5.316;2023-06-19T07:37:02;25.30;95.30
32522;DHT22;18963;51.504;5.316;2023-06-19T07:39:28;25.50;94.90
32522;DHT22;18963;51.504;5.316;2023-06-19T07:41:53;25.60;94.40
32522;DHT22;18963;51.504;5.316;2023-06-19T07:44:19;25.70;94.00
32522;DHT22;18963;51.504;5.316;2023-06-19T07:46:46;25.70;93.30
32522;DHT22;18963;51.504;5.316;2023-06-19T07:49:11;25.70;93.30
32522;DHT22;18963;51.504;5.316;2023-06-19T07:51:37;25.60;93.00
32522;DHT22;18963;51.504;5.316;2023-06-19T07:54:02;25.40;93.10
32522;DHT22;18963;51.504;5.316;2023-06-19T07:56:28;25.20;93.90
32522;DHT22;18963;51.504;5.316;2023-06-19T07:58:53;25.40;94.40
32522;DHT22;18963;51.504;5.316;2023-06-19T08:01:19;25.50;93.90
32522;DHT22;18963;51.504;5.316;2023-06-19T08:03:45;25.60;93.70
32522;DHT22;18963;51.504;5.316;2023-06-19T08:06:10;25.80;93.40
32522;DHT22;18963;51.504;5.316;2023-06-19T08:08:36;26.00;92.10
32522;DHT22;18963;51.504;5.316;2023-06-19T08:11:01;26.20;91.70
32522;DHT22;18963;51.504;5.316;2023-06-19T08:13:27;26.40;91.50
32522;DHT22;18963;51.504;5.316;2023-06-19T08:15:52;26.50;90.60
32522;DHT22;18963;51.504;5.316;2023-06-19T08:18:18;26.70;90.10
32522;DHT22;18963;51.504;5.316;2023-06-19T08:20:43;26.80;90.20
32522;DHT22;18963;51.504;5.316;2023-06-19T08:23:08;27.20;88.50
32522;DHT22;18963;51.504;5.316;2023-06-19T08:25:34;27.40;85.80
32522;DHT22;18963;51.504;5.316;2023-06-19T08:28:00;27.50;85.20
32522;DHT22;18963;51.504;5.316;2023-06-19T08:30:25;27.40;84.80
32522;DHT22;18963;51.504;5.316;2023-06-19T08:32:51;27.40;84.60
32522;DHT22;18963;51.504;5.316;2023-06-19T08:35:16;27.40;84.00
32522;DHT22;18963;51.504;5.316;2023-06-19T08:37:43;27.20;83.50
32522;DHT22;18963;51.504;5.316;2023-06-19T08:40:09;27.20;83.30
32522;DHT22;18963;51.504;5.316;2023-06-19T08:42:35;27.20;83.50
32522;DHT22;18963;51.504;5.316;2023-06-19T08:45:00;27.00;83.40
32522;DHT22;18963;51.504;5.316;2023-06-19T08:47:32;26.90;84.00
32522;DHT22;18963;51.504;5.316;2023-06-19T08:49:59;27.00;84.10
32522;DHT22;18963;51.504;5.316;2023-06-19T08:52:24;27.20;83.80
32522;DHT22;18963;51.504;5.316;2023-06-19T08:54:50;27.40;84.30
32522;DHT22;18963;51.504;5.316;2023-06-19T08:57:15;27.50;82.80
32522;DHT22;18963;51.504;5.316;2023-06-19T08:59:47;27.70;83.70
32522;DHT22;18963;51.504;5.316;2023-06-19T09:02:13;27.90;82.60
32522;DHT22;18963;51.504;5.316;2023-06-19T09:04:38;28.40;80.70
32522;DHT22;18963;51.504;5.316;2023-06-19T09:07:04;28.60;78.70
32522;DHT22;18963;51.504;5.316;2023-06-19T09:09:30;28.50;76.80
32522;DHT22;18963;51.504;5.316;2023-06-19T09:14:31;28.30;76.90
32522;DHT22;18963;51.504;5.316;2023-06-19T09:16:57;28.40;76.40
32522;DHT22;18963;51.504;5.316;2023-06-19T09:19:23;28.30;76.10
32522;DHT22;18963;51.504;5.316;2023-06-19T09:21:48;28.40;77.70
32522;DHT22;18963;51.504;5.316;2023-06-19T09:24:14;28.80;76.10
32522;DHT22;18963;51.504;5.316;2023-06-19T09:26:39;29.00;73.90
32522;DHT22;18963;51.504;5.316;2023-06-19T09:29:11;29.70;72.60
32522;DHT22;18963;51.504;5.316;2023-06-19T09:31:37;30.00;71.20
32522;DHT22;18963;51.504;5.316;2023-06-19T09:34:03;30.30;70.50
32522;DHT22;18963;51.504;5.316;2023-06-19T09:36:29;30.50;68.60
32522;DHT22;18963;51.504;5.316;2023-06-19T09:38:56;30.90;67.00
32522;DHT22;18963;51.504;5.316;2023-06-19T09:41:22;31.20;66.80
32522;DHT22;18963;51.504;5.316;2023-06-19T09:43:49;31.50;63.80
32522;DHT22;18963;51.504;5.316;2023-06-19T09:46:15;31.40;62.00
32522;DHT22;18963;51.504;5.316;2023-06-19T09:48:42;31.40;60.20
32522;DHT22;18963;51.504;5.316;2023-06-19T09:51:19;31.30;60.70
32522;DHT22;18963;51.504;5.316;2023-06-19T09:53:45;31.40;59.70
32522;DHT22;18963;51.504;5.316;2023-06-19T09:56:12;31.40;60.40
32522;DHT22;18963;51.504;5.316;2023-06-19T09:58:37;31.20;59.50
32522;DHT22;18963;51.504;5.316;2023-06-19T10:01:04;31.50;59.60
32522;DHT22;18963;51.504;5.316;2023-06-19T10:03:30;31.70;59.10
32522;DHT22;18963;51.504;5.316;2023-06-19T10:06:02;31.70;59.10
32522;DHT22;18963;51.504;5.316;2023-06-19T10:08:46;31.80;58.90
32522;DHT22;18963;51.504;5.316;2023-06-19T10:11:13;31.70;58.40
32522;DHT22;18963;51.504;5.316;2023-06-19T10:13:42;31.60;58.70
32522;DHT22;18963;51.504;5.316;2023-06-19T10:16:08;31.80;57.70
32522;DHT22;18963;51.504;5.316;2023-06-19T10:18:44;31.80;57.60
32522;DHT22;18963;51.504;5.316;2023-06-19T10:21:18;31.90;57.10
32522;DHT22;18963;51.504;5.316;2023-06-19T10:23:51;31.80;57.00
32522;DHT22;18963;51.504;5.316;2023-06-19T10:26:18;32.20;57.30
32522;DHT22;18963;51.504;5.316;2023-06-19T10:28:46;32.40;57.10
32522;DHT22;18963;51.504;5.316;2023-06-19T10:31:11;32.60;56.00
32522;DHT22;18963;51.504;5.316;2023-06-19T10:33:37;32.80;55.70
32522;DHT22;18963;51.504;5.316;2023-06-19T10:36:21;33.10;54.90
32522;DHT22;18963;51.504;5.316;2023-06-19T10:38:51;33.30;54.30
32522;DHT22;18963;51.504;5.316;2023-06-19T10:41:17;33.30;53.90
32522;DHT22;18963;51.504;5.316;2023-06-19T10:43:52;33.40;53.70
32522;DHT22;18963;51.504;5.316;2023-06-19T10:46:17;33.50;53.60
32522;DHT22;18963;51.504;5.316;2023-06-19T10:48:43;33.60;52.90
32522;DHT22;18963;51.504;5.316;2023-06-19T10:51:08;33.80;52.80
32522;DHT22;18963;51.504;5.316;2023-06-19T10:53:34;33.80;52.40
32522;DHT22;18963;51.504;5.316;2023-06-19T10:56:00;33.50;51.90
32522;DHT22;18963;51.504;5.316;2023-06-19T10:58:26;33.30;52.70
32522;DHT22;18963;51.504;5.316;2023-06-19T11:00:52;32.90;51.60
32522;DHT22;18963;51.504;5.316;2023-06-19T11:03:18;32.20;52.20
32522;DHT22;18963;51.504;5.316;2023-06-19T11:05:44;31.90;52.70
32522;DHT22;18963;51.504;5.316;2023-06-19T11:08:09;31.80;53.00
32522;DHT22;18963;51.504;5.316;2023-06-19T11:10:35;32.00;52.90
32522;DHT22;18963;51.504;5.316;2023-06-19T11:13:00;32.20;52.00
32522;DHT22;18963;51.504;5.316;2023-06-19T11:15:32;32.20;52.20
32522;DHT22;18963;51.504;5.316;2023-06-19T11:17:59;32.40;52.10
32522;DHT22;18963;51.504;5.316;2023-06-19T11:20:25;32.60;51.80
32522;DHT22;18963;51.504;5.316;2023-06-19T11:22:58;33.10;51.60
32522;DHT22;18963;51.504;5.316;2023-06-19T11:25:34;33.20;51.00
32522;DHT22;18963;51.504;5.316;2023-06-19T11:28:00;33.90;50.90
32522;DHT22;18963;51.504;5.316;2023-06-19T11:30:32;34.30;50.10
32522;DHT22;18963;51.504;5.316;2023-06-19T11:32:58;34.70;48.30
32522;DHT22;18963;51.504;5.316;2023-06-19T11:35:23;34.70;46.20
32522;DHT22;18963;51.504;5.316;2023-06-19T11:37:49;34.70;46.50
32522;DHT22;18963;51.504;5.316;2023-06-19T11:40:16;34.70;46.70
32522;DHT22;18963;51.504;5.316;2023-06-19T11:42:51;34.60;46.90
32522;DHT22;18963;51.504;5.316;2023-06-19T11:45:16;34.30;46.70
32522;DHT22;18963;51.504;5.316;2023-06-19T11:47:45;34.40;46.60
32522;DHT22;18963;51.504;5.316;2023-06-19T11:50:11;34.70;46.90
32522;DHT22;18963;51.504;5.316;2023-06-19T11:52:37;34.60;46.70
32522;DHT22;18963;51.504;5.316;2023-06-19T11:55:02;34.80;45.90
32522;DHT22;18963;51.504;5.316;2023-06-19T11:57:28;34.80;45.30
32522;DHT22;18963;51.504;5.316;2023-06-19T11:59:54;34.90;44.90
32522;DHT22;18963;51.504;5.316;2023-06-19T12:02:20;35.10;44.10
32522;DHT22;18963;51.504;5.316;2023-06-19T12:04:45;35.10;44.70
32522;DHT22;18963;51.504;5.316;2023-06-19T12:07:11;35.20;45.50
32522;DHT22;18963;51.504;5.316;2023-06-19T12:09:36;35.70;44.90
32522;DHT22;18963;51.504;5.316;2023-06-19T12:12:04;36.10;44.90
32522;DHT22;18963;51.504;5.316;2023-06-19T12:14:29;36.10;44.00
32522;DHT22;18963;51.504;5.316;2023-06-19T12:16:55;36.00;44.00
32522;DHT22;18963;51.504;5.316;2023-06-19T12:19:21;35.80;44.60
32522;DHT22;18963;51.504;5.316;2023-06-19T12:21:46;35.60;44.90
32522;DHT22;18963;51.504;5.316;2023-06-19T12:24:12;35.40;44.40
32522;DHT22;18963;51.504;5.316;2023-06-19T12:26:37;35.00;44.70
32522;DHT22;18963;51.504;5.316;2023-06-19T12:29:03;34.80;44.70
32522;DHT22;18963;51.504;5.316;2023-06-19T12:31:29;34.70;44.50
32522;DHT22;18963;51.504;5.316;2023-06-19T12:33:55;34.50;45.00
32522;DHT22;18963;51.504;5.316;2023-06-19T12:36:20;34.40;45.10
32522;DHT22;18963;51.504;5.316;2023-06-19T12:38:46;34.20;45.60
32522;DHT22;18963;51.504;5.316;2023-06-19T12:41:13;34.00;45.90
32522;DHT22;18963;51.504;5.316;2023-06-19T12:43:38;33.90;46.50
32522;DHT22;18963;51.504;5.316;2023-06-19T12:46:04;33.70;45.70
32522;DHT22;18963;51.504;5.316;2023-06-19T12:48:29;33.70;45.40
32522;DHT22;18963;51.504;5.316;2023-06-19T12:50:55;33.30;46.20
32522;DHT22;18963;51.504;5.316;2023-06-19T12:53:20;33.20;46.50
32522;DHT22;18963;51.504;5.316;2023-06-19T12:55:52;33.30;46.80
32522;DHT22;18963;51.504;5.316;2023-06-19T12:58:17;33.00;46.70
32522;DHT22;18963;51.504;5.316;2023-06-19T13:00:43;33.00;46.10
32522;DHT22;18963;51.504;5.316;2023-06-19T13:03:08;32.90;46.90
32522;DHT22;18963;51.504;5.316;2023-06-19T13:05:34;32.80;46.00
32522;DHT22;18963;51.504;5.316;2023-06-19T13:07:59;32.60;45.90
32522;DHT22;18963;51.504;5.316;2023-06-19T13:10:25;32.40;45.90
32522;DHT22;18963;51.504;5.316;2023-06-19T13:12:50;32.20;47.20
32522;DHT22;18963;51.504;5.316;2023-06-19T13:15:16;32.20;47.40
32522;DHT22;18963;51.504;5.316;2023-06-19T13:17:42;32.30;45.90
32522;DHT22;18963;51.504;5.316;2023-06-19T13:20:08;32.20;45.40
32522;DHT22;18963;51.504;5.316;2023-06-19T13:22:33;32.30;46.50
32522;DHT22;18963;51.504;5.316;2023-06-19T13:24:59;32.60;45.80
32522;DHT22;18963;51.504;5.316;2023-06-19T13:27:24;32.90;45.10
32522;DHT22;18963;51.504;5.316;2023-06-19T13:29:50;33.00;44.80
32522;DHT22;18963;51.504;5.316;2023-06-19T13:32:15;33.10;44.60
32522;DHT22;18963;51.504;5.316;2023-06-19T13:34:41;33.40;44.30
32522;DHT22;18963;51.504;5.316;2023-06-19T13:37:07;33.40;43.30
32522;DHT22;18963;51.504;5.316;2023-06-19T13:39:32;33.60;43.10
32522;DHT22;18963;51.504;5.316;2023-06-19T13:41:58;33.90;42.70
32522;DHT22;18963;51.504;5.316;2023-06-19T13:44:26;33.90;42.90
32522;DHT22;18963;51.504;5.316;2023-06-19T13:46:51;34.10;42.70
32522;DHT22;18963;51.504;5.316;2023-06-19T13:49:17;34.20;43.10
32522;DHT22;18963;51.504;5.316;2023-06-19T13:51:43;34.20;43.00
32522;DHT22;18963;51.504;5.316;2023-06-19T13:54:09;34.20;43.20
32522;DHT22;18963;51.504;5.316;2023-06-19T13:56:34;34.20;43.00
32522;DHT22;18963;51.504;5.316;2023-06-19T13:59:00;34.00;43.10
32522;DHT22;18963;51.504;5.316;2023-06-19T14:01:25;33.90;42.50
32522;DHT22;18963;51.504;5.316;2023-06-19T14:03:51;33.80;43.10
32522;DHT22;18963;51.504;5.316;2023-06-19T14:06:17;33.90;43.40
32522;DHT22;18963;51.504;5.316;2023-06-19T14:08:42;33.90;43.20
32522;DHT22;18963;51.504;5.316;2023-06-19T14:11:08;33.90;43.30
32522;DHT22;18963;51.504;5.316;2023-06-19T14:13:33;33.80;43.30
32522;DHT22;18963;51.504;5.316;2023-06-19T14:15:58;33.70;43.40
32522;DHT22;18963;51.504;5.316;2023-06-19T14:18:24;33.80;43.70
32522;DHT22;18963;51.504;5.316;2023-06-19T14:20:49;34.00;43.40
32522;DHT22;18963;51.504;5.316;2023-06-19T14:23:15;34.00;43.40
32522;DHT22;18963;51.504;5.316;2023-06-19T14:25:41;34.10;43.00
32522;DHT22;18963;51.504;5.316;2023-06-19T14:28:06;34.20;42.60
32522;DHT22;18963;51.504;5.316;2023-06-19T14:30:32;34.00;42.50
32522;DHT22;18963;51.504;5.316;2023-06-19T14:32:57;33.90;42.40
32522;DHT22;18963;51.504;5.316;2023-06-19T14:35:23;33.70;41.60
32522;DHT22;18963;51.504;5.316;2023-06-19T14:37:48;33.60;42.20
32522;DHT22;18963;51.504;5.316;2023-06-19T14:40:14;33.50;41.90
32522;DHT22;18963;51.504;5.316;2023-06-19T14:42:39;33.20;41.90
32522;DHT22;18963;51.504;5.316;2023-06-19T14:45:06;33.10;42.90
32522;DHT22;18963;51.504;5.316;2023-06-19T14:47:32;33.00;42.50
32522;DHT22;18963;51.504;5.316;2023-06-19T14:49:58;32.50;42.90
32522;DHT22;18963;51.504;5.316;2023-06-19T14:52:24;31.90;43.30
32522;DHT22;18963;51.504;5.316;2023-06-19T14:54:49;31.50;44.00
32522;DHT22;18963;51.504;5.316;2023-06-19T14:57:15;31.40;44.50
32522;DHT22;18963;51.504;5.316;2023-06-19T14:59:40;31.40;44.80
32522;DHT22;18963;51.504;5.316;2023-06-19T15:02:05;31.40;45.00
32522;DHT22;18963;51.504;5.316;2023-06-19T15:04:32;31.40;44.90
32522;DHT22;18963;51.504;5.316;2023-06-19T15:06:57;31.30;45.10
32522;DHT22;18963;51.504;5.316;2023-06-19T15:09:23;31.00;45.40
32522;DHT22;18963;51.504;5.316;2023-06-19T15:11:49;30.80;45.50
32522;DHT22;18963;51.504;5.316;2023-06-19T15:14:14;30.60;46.10
32522;DHT22;18963;51.504;5.316;2023-06-19T15:16:40;30.50;46.10
32522;DHT22;18963;51.504;5.316;2023-06-19T15:19:05;30.50;46.80
32522;DHT22;18963;51.504;5.316;2023-06-19T15:21:31;30.30;46.90
32522;DHT22;18963;51.504;5.316;2023-06-19T15:23:56;30.20;47.10
32522;DHT22;18963;51.504;5.316;2023-06-19T15:26:22;30.10;47.30